Time;durP1;ratioP1;P1;durP2;ratioP2;P2;SDS_P1;SDS_P2;PMS_P1;PMS_P2;Temp;Humidity;BMP_temperature;BMP_pressure;BME280_temperature;BME280_humidity;BME280_pressure;Samples;Min_cycle;Max_cycle;Signal;HPM_P1;HPM_P2
2022/10/27 00:03:21;;;;;;;14.60;7.10;;;;;;;;;;31245875;28;20053;-75
2022/10/27 00:18:23;;;;;;;14.70;7.13;;;;;;;;;;31245288;28;20053;-75
2022/10/27 00:33:25;;;;;;;13.20;7.40;;;;;;;;;;31249287;28;20053;-75
2022/10/27 00:48:28;;;;;;;14.07;7.40;;;;;;;;;;31241511;28;20080;-75
2022/10/27 01:03:30;;;;;;;17.83;7.60;;;;;;;;;;31235552;28;20057;-75
2022/10/27 01:18:36;;;;;;;15.47;5.33;;;;;;;;;;31241799;28;20061;-75
2022/10/27 01:33:45;;;;;;;9.77;4.73;;;;;;;;;;31258888;28;20061;-76
2022/10/27 01:48:48;;;;;;;11.37;5.00;;;;;;;;;;31269645;28;20493;-75
2022/10/27 02:03:58;;;;;;;10.63;4.50;;;;;;;;;;31260037;28;20058;-75
2022/10/27 02:19:02;;;;;;;9.20;4.63;;;;;;;;;;31258429;28;20421;-75
2022/10/27 02:34:04;;;;;;;9.33;3.90;;;;;;;;;;31261292;28;20049;-76
2022/10/27 02:49:06;;;;;;;10.03;4.00;;;;;;;;;;31262471;28;20046;-75
2022/10/27 03:04:08;;;;;;;10.50;4.93;;;;;;;;;;31253703;28;20049;-75
2022/10/27 03:19:10;;;;;;;14.13;5.90;;;;;;;;;;31252240;28;20049;-76
2022/10/27 03:34:12;;;;;;;15.40;6.57;;;;;;;;;;31256610;28;20064;-76
2022/10/27 03:49:17;;;;;;;19.10;7.30;;;;;;;;;;31247714;28;20064;-76
2022/10/27 04:04:19;;;;;;;16.80;6.80;;;;;;;;;;31241170;28;20096;-77
2022/10/27 04:19:21;;;;;;;20.47;8.23;;;;;;;;;;31245354;28;20065;-76
2022/10/27 04:34:23;;;;;;;19.60;8.07;;;;;;;;;;31247132;28;20064;-76
2022/10/27 04:49:25;;;;;;;16.03;8.73;;;;;;;;;;31242277;28;20842;-77
2022/10/27 05:04:27;;;;;;;24.00;9.30;;;;;;;;;;31235415;28;20084;-76
2022/10/27 05:19:28;;;;;;;16.10;7.83;;;;;;;;;;31239768;28;20061;-77
2022/10/27 05:34:30;;;;;;;27.70;9.03;;;;;;;;;;31243735;28;20057;-77
2022/10/27 05:49:32;;;;;;;17.15;7.43;;;;;;;;;;31244980;28;20053;-77
2022/10/27 06:04:34;;;;;;;14.00;6.13;;;;;;;;;;31231447;28;20107;-77
2022/10/27 06:19:35;;;;;;;19.10;6.68;;;;;;;;;;31250486;28;20056;-75
2022/10/27 06:34:37;;;;;;;12.70;5.93;;;;;;;;;;31263172;28;20057;-76
2022/10/27 06:49:39;;;;;;;13.18;5.70;;;;;;;;;;31254731;28;20049;-76
2022/10/27 07:04:40;;;;;;;8.60;4.43;;;;;;;;;;31252652;28;20058;-77
2022/10/27 07:19:42;;;;;;;7.13;3.53;;;;;;;;;;31249572;28;20077;-75
2022/10/27 07:34:44;;;;;;;17.77;7.32;;;;;;;;;;31252053;28;20072;-76
2022/10/27 07:49:45;;;;;;;9.68;4.85;;;;;;;;;;31252407;28;20075;-75
2022/10/27 08:04:47;;;;;;;12.85;4.82;;;;;;;;;;31245574;28;20057;-76
2022/10/27 08:19:49;;;;;;;10.13;4.72;;;;;;;;;;31243185;28;20493;-75
2022/10/27 08:34:51;;;;;;;7.50;4.75;;;;;;;;;;31245838;28;20547;-76
2022/10/27 08:50:12;;;;;;;24.35;11.45;;;;;;;;;;31241518;28;20057;-76
2022/10/27 09:05:22;;;;;;;12.40;4.60;;;;;;;;;;31240155;28;20057;-76
2022/10/27 09:20:30;;;;;;;6.78;3.45;;;;;;;;;;31239721;28;20053;-75
2022/10/27 09:35:32;;;;;;;7.15;4.28;;;;;;;;;;31243998;28;20501;-75
2022/10/27 09:50:55;;;;;;;10.05;4.30;;;;;;;;;;31251408;28;20045;-75
2022/10/27 10:05:58;;;;;;;9.82;4.82;;;;;;;;;;31259833;28;20115;-76
2022/10/27 10:21:02;;;;;;;14.90;6.07;;;;;;;;;;31258880;28;20059;-76
2022/10/27 10:36:15;;;;;;;10.93;5.57;;;;;;;;;;31262741;28;20061;-76
2022/10/27 10:51:27;;;;;;;12.27;6.05;;;;;;;;;;31259037;28;20045;-76
2022/10/27 11:06:29;;;;;;;11.27;5.82;;;;;;;;;;31252658;28;20053;-75
2022/10/27 11:21:33;;;;;;;12.02;5.38;;;;;;;;;;31250872;28;20456;-75
2022/10/27 11:36:48;;;;;;;14.10;6.50;;;;;;;;;;31254476;28;20053;-75
2022/10/27 11:52:03;;;;;;;16.10;5.22;;;;;;;;;;31252626;28;20053;-75
2022/10/27 12:07:12;;;;;;;15.63;6.22;;;;;;;;;;31244267;28;20060;-75
2022/10/27 12:22:17;;;;;;;22.92;7.90;;;;;;;;;;31244841;28;20432;-76
2022/10/27 12:37:25;;;;;;;24.10;10.65;;;;;;;;;;31245700;28;20054;-74
2022/10/27 12:52:28;;;;;;;22.33;7.45;;;;;;;;;;31245595;28;20048;-76
2022/10/27 13:07:33;;;;;;;18.15;6.70;;;;;;;;;;31229953;28;20489;-76
2022/10/27 13:22:41;;;;;;;12.48;6.43;;;;;;;;;;31249576;28;20041;-76
2022/10/27 13:37:44;;;;;;;11.32;5.45;;;;;;;;;;31263061;28;20061;-75
2022/10/27 13:52:46;;;;;;;14.65;6.15;;;;;;;;;;31266794;28;20050;-75
2022/10/27 14:07:48;;;;;;;13.75;6.03;;;;;;;;;;31262050;28;20054;-74
2022/10/27 14:22:52;;;;;;;24.23;6.80;;;;;;;;;;31258408;28;20049;-75
2022/10/27 14:37:56;;;;;;;13.97;5.83;;;;;;;;;;31254574;28;20076;-75
2022/10/27 14:52:59;;;;;;;21.33;5.90;;;;;;;;;;31260878;28;20100;-76
2022/10/27 15:08:02;;;;;;;19.33;10.77;;;;;;;;;;31253583;28;20072;-75
2022/10/27 15:23:04;;;;;;;15.05;7.13;;;;;;;;;;31251918;28;20092;-76
2022/10/27 15:38:22;;;;;;;23.83;8.20;;;;;;;;;;31246719;28;20053;-76
2022/10/27 15:53:24;;;;;;;17.93;6.80;;;;;;;;;;31251884;28;20054;-76
2022/10/27 16:08:25;;;;;;;22.98;7.60;;;;;;;;;;31245200;28;20057;-76
2022/10/27 16:23:27;;;;;;;20.40;7.27;;;;;;;;;;31244434;28;20045;-76
2022/10/27 16:38:29;;;;;;;27.37;12.87;;;;;;;;;;31241870;28;20085;-77
2022/10/27 16:53:31;;;;;;;20.17;7.60;;;;;;;;;;31245382;28;20107;-78
2022/10/27 17:08:33;;;;;;;18.03;7.97;;;;;;;;;;31239292;28;20057;-76
2022/10/27 17:23:36;;;;;;;21.50;6.90;;;;;;;;;;31239507;28;20042;-76
2022/10/27 17:38:38;;;;;;;14.23;6.47;;;;;;;;;;31237496;28;20057;-76
2022/10/27 17:53:41;;;;;;;19.37;7.17;;;;;;;;;;31242430;28;20053;-78
2022/10/27 18:08:43;;;;;;;18.27;6.67;;;;;;;;;;31235075;28;20057;-76
2022/10/27 18:23:49;;;;;;;13.70;6.67;;;;;;;;;;31257584;28;20049;-76
2022/10/27 18:38:58;;;;;;;13.67;5.77;;;;;;;;;;31254791;28;20057;-76
2022/10/27 18:54:03;;;;;;;13.70;6.03;;;;;;;;;;31255012;28;20054;-75
2022/10/27 19:09:05;;;;;;;20.83;11.33;;;;;;;;;;31255167;28;20054;-76
2022/10/27 19:24:08;;;;;;;16.37;7.73;;;;;;;;;;31245217;28;20058;-79
2022/10/27 19:39:10;;;;;;;14.27;6.00;;;;;;;;;;31250190;28;20053;-76
2022/10/27 19:54:13;;;;;;;12.33;5.97;;;;;;;;;;31254360;28;20050;-76
2022/10/27 20:09:16;;;;;;;10.83;6.17;;;;;;;;;;31245033;28;20065;-76
2022/10/27 20:24:21;;;;;;;14.63;6.50;;;;;;;;;;31243961;28;20064;-76
2022/10/27 20:39:22;;;;;;;44.70;18.87;;;;;;;;;;31246225;28;20140;-76
2022/10/27 20:54:24;;;;;;;24.60;10.50;;;;;;;;;;31245107;28;20378;-76
2022/10/27 21:09:26;;;;;;;11.47;6.13;;;;;;;;;;31239760;28;20064;-75
2022/10/27 21:24:28;;;;;;;22.93;7.00;;;;;;;;;;31240294;28;20045;-75
2022/10/27 21:39:29;;;;;;;15.40;6.90;;;;;;;;;;31239338;28;20046;-75
2022/10/27 21:54:31;;;;;;;21.07;7.83;;;;;;;;;;31261859;28;20041;-75
2022/10/27 22:09:33;;;;;;;15.40;7.00;;;;;;;;;;31261218;28;20421;-76
2022/10/27 22:24:34;;;;;;;14.33;7.03;;;;;;;;;;31259229;28;20696;-75
2022/10/27 22:39:36;;;;;;;16.50;7.47;;;;;;;;;;31257517;28;20061;-75
2022/10/27 22:54:38;;;;;;;17.83;6.80;;;;;;;;;;31260458;28;20041;-75
2022/10/27 23:09:39;;;;;;;13.03;6.10;;;;;;;;;;31253687;28;20566;-76
2022/10/27 23:24:41;;;;;;;15.07;5.93;;;;;;;;;;31253283;28;20053;-75
2022/10/27 23:39:43;;;;;;;12.43;6.03;;;;;;;;;;31248367;28;20060;-76
2022/10/27 23:54:45;;;;;;;13.70;5.80;;;;;;;;;;31253655;28;20057;-75
